createdAt,value
2018-11-20T00:00:54.302Z,5.80
2018-11-20T00:04:01.773Z,5.80
2018-11-20T00:07:09.326Z,5.80
2018-11-20T00:16:32.641Z,5.80
2018-11-20T00:19:59.154Z,5.70
2018-11-20T00:22:48.206Z,5.70
2018-11-20T00:25:55.691Z,5.70
2018-11-20T00:29:03.315Z,5.80
2018-11-20T00:32:10.776Z,5.80
2018-11-20T00:35:18.303Z,5.70
2018-11-20T00:38:30.410Z,5.70
2018-11-20T00:41:38.037Z,5.70
2018-11-20T00:44:45.535Z,5.60
2018-11-20T00:48:11.913Z,5.60
2018-11-20T00:51:15.081Z,5.60
2018-11-20T00:54:22.578Z,5.60
2018-11-20T00:57:11.418Z,5.50
2018-11-20T01:00:21.798Z,5.60
2018-11-20T01:03:10.700Z,5.60
2018-11-20T01:06:18.495Z,5.50
2018-11-20T01:09:27.125Z,5.50
2018-11-20T01:12:15.725Z,5.60
2018-11-20T01:15:23.224Z,5.50
2018-11-20T01:18:30.726Z,5.50
2018-11-20T01:21:19.557Z,5.50
2018-11-20T01:24:27.034Z,5.50
2018-11-20T01:27:34.512Z,5.50
2018-11-20T01:30:23.533Z,5.50
2018-11-20T01:33:22.627Z,5.40
2018-11-20T01:36:11.634Z,5.30
2018-11-20T01:39:37.975Z,5.30
2018-11-20T01:42:45.479Z,5.30
2018-11-20T01:45:52.949Z,5.50
2018-11-20T01:48:41.581Z,5.50
2018-11-20T01:51:49.044Z,5.50
2018-11-20T01:54:29.826Z,5.50
2018-11-20T01:57:37.355Z,5.50
2018-11-20T02:00:26.600Z,5.40
2018-11-20T02:03:52.948Z,5.30
2018-11-20T02:06:41.592Z,5.30
2018-11-20T02:09:49.035Z,5.30
2018-11-20T02:12:56.522Z,5.30
2018-11-20T02:16:03.999Z,5.30
2018-11-20T02:19:11.503Z,5.30
2018-11-20T02:22:24.569Z,5.30
2018-11-20T02:25:32.060Z,5.20
2018-11-20T02:28:39.613Z,5.20
2018-11-20T02:31:30.213Z,5.20
2018-11-20T02:34:37.701Z,5.20
2018-11-20T02:37:41.870Z,5.20
2018-11-20T02:40:57.398Z,5.30
2018-11-20T02:43:46.098Z,5.20
2018-11-20T02:47:12.427Z,5.20
2018-11-20T02:50:19.904Z,5.20
2018-11-20T02:53:07.681Z,5.20
2018-11-20T02:55:54.492Z,5.10
2018-11-20T02:58:51.006Z,5.10
2018-11-20T03:01:51.461Z,5.00
2018-11-20T03:04:58.899Z,5.00
2018-11-20T03:08:25.265Z,5.00
2018-11-20T03:11:14.205Z,5.10
2018-11-20T03:14:02.838Z,5.10
2018-11-20T03:17:29.167Z,5.10
2018-11-20T03:20:18.112Z,5.00
2018-11-20T03:23:06.991Z,5.10
2018-11-20T03:26:33.349Z,5.10
2018-11-20T03:29:48.719Z,5.10
2018-11-20T03:33:00.924Z,5.10
2018-11-20T03:35:46.061Z,5.10
2018-11-20T03:41:45.615Z,5.10
2018-11-20T03:44:33.394Z,5.00
2018-11-20T03:47:40.530Z,5.00
2018-11-20T03:50:47.551Z,5.00
2018-11-20T03:53:35.789Z,5.00
2018-11-20T03:56:42.878Z,4.90
2018-11-20T03:59:50.062Z,4.90
2018-11-20T04:02:57.127Z,4.80
2018-11-20T04:05:58.410Z,4.90
2018-11-20T04:09:05.486Z,4.80
2018-11-20T04:12:12.933Z,4.80
2018-11-20T04:14:52.462Z,4.90
2018-11-20T04:17:59.624Z,4.80
2018-11-20T04:21:06.649Z,4.80
2018-11-20T04:24:13.737Z,4.70
2018-11-20T04:27:20.782Z,4.70
2018-11-20T04:30:47.139Z,4.70
2018-11-20T04:34:16.300Z,4.80
2018-11-20T04:37:23.434Z,4.80
2018-11-20T04:40:11.226Z,4.90
2018-11-20T04:43:18.305Z,4.90
2018-11-20T04:49:13.231Z,5.00
2018-11-20T04:52:20.594Z,4.90
2018-11-20T04:55:27.757Z,5.00
2018-11-20T04:58:15.609Z,4.90
2018-11-20T05:01:22.702Z,4.80
2018-11-20T05:04:19.654Z,4.80
2018-11-20T05:07:26.899Z,4.80
2018-11-20T05:10:33.948Z,4.80
2018-11-20T05:13:24.273Z,4.90
2018-11-20T05:16:31.245Z,4.60
2018-11-20T05:19:38.393Z,4.70
2018-11-20T05:22:26.233Z,4.60
2018-11-20T05:25:33.316Z,4.70
2018-11-20T05:28:40.394Z,4.70
2018-11-20T05:31:47.492Z,4.70
2018-11-20T05:40:49.806Z,5.00
2018-11-20T05:43:38.320Z,4.90
2018-11-20T05:46:26.079Z,4.80
2018-11-20T05:49:54.278Z,4.80
2018-11-20T05:53:01.379Z,4.80
2018-11-20T05:55:49.462Z,4.80
2018-11-20T05:58:56.558Z,4.90
2018-11-20T06:02:03.661Z,4.90
2018-11-20T06:05:10.724Z,4.90
2018-11-20T06:08:17.799Z,4.80
2018-11-20T06:11:26.251Z,4.90
2018-11-20T06:14:14.338Z,4.80
2018-11-20T06:17:21.421Z,4.80
2018-11-20T06:20:19.940Z,4.80
2018-11-20T06:23:44.291Z,4.90
2018-11-20T06:27:10.650Z,4.80
2018-11-20T06:29:58.878Z,4.80
2018-11-20T06:33:05.371Z,4.80
2018-11-20T06:35:59.841Z,4.80
2018-11-20T06:38:48.028Z,4.90
2018-11-20T06:41:55.145Z,4.90
2018-11-20T06:45:03.585Z,4.90
2018-11-20T06:47:51.504Z,4.90
2018-11-20T06:50:58.683Z,4.90
2018-11-20T06:54:25.013Z,5.00
2018-11-20T06:57:13.426Z,4.90
2018-11-20T07:00:01.176Z,4.90
2018-11-20T07:06:05.246Z,4.90
2018-11-20T07:11:50.541Z,4.90
2018-11-20T07:14:41.351Z,4.90
2018-11-20T07:20:39.103Z,5.00
2018-11-20T07:23:46.172Z,5.00
2018-11-20T07:26:34.514Z,5.00
2018-11-20T07:29:22.726Z,5.00
2018-11-20T07:32:49.059Z,5.00
2018-11-20T07:35:34.232Z,4.90
2018-11-20T07:38:22.368Z,5.00
2018-11-20T07:41:29.419Z,4.90
2018-11-20T07:44:18.712Z,4.90
2018-11-20T07:47:25.789Z,4.90
2018-11-20T07:50:32.935Z,5.00
2018-11-20T07:53:20.714Z,5.00
2018-11-20T07:56:27.998Z,5.00
2018-11-20T07:59:16.173Z,5.00
2018-11-20T08:02:10.070Z,4.90
2018-11-20T08:04:57.846Z,4.90
2018-11-20T08:08:04.969Z,4.90
2018-11-20T08:10:52.779Z,4.90
2018-11-20T08:13:59.852Z,5.00
2018-11-20T08:16:54.092Z,5.00
2018-11-20T08:20:01.547Z,5.00
2018-11-20T08:23:08.737Z,5.00
2018-11-20T08:26:16.089Z,5.10
2018-11-20T08:29:04.001Z,5.10
2018-11-20T08:31:52.156Z,5.20
2018-11-20T08:35:18.519Z,5.20
2018-11-20T08:38:25.642Z,5.10
2018-11-20T08:41:14.874Z,5.10
2018-11-20T08:44:22.242Z,5.10
2018-11-20T08:47:29.363Z,5.10
2018-11-20T08:50:36.442Z,5.10
2018-11-20T08:53:43.875Z,5.20
2018-11-20T09:00:07.648Z,5.20
2018-11-20T09:02:49.867Z,5.30
2018-11-20T09:05:49.456Z,5.30
2018-11-20T09:08:29.356Z,5.40
2018-11-20T09:11:16.099Z,5.40
2018-11-20T09:14:08.206Z,5.40
2018-11-20T09:16:54.209Z,5.40
2018-11-20T09:19:38.894Z,5.40
2018-11-20T09:22:32.382Z,5.40
2018-11-20T09:25:35.847Z,5.40
2018-11-20T09:28:23.785Z,5.30
2018-11-20T09:31:15.046Z,5.30
2018-11-20T09:34:08.507Z,5.30
2018-11-20T09:36:59.483Z,5.30
2018-11-20T09:39:54.243Z,5.30
2018-11-20T09:42:52.141Z,5.40
2018-11-20T09:46:12.601Z,5.50
2018-11-20T09:49:03.531Z,5.50
2018-11-20T09:51:43.185Z,5.50
2018-11-20T09:54:47.345Z,5.50
2018-11-20T09:57:33.570Z,5.60
2018-11-20T10:00:33.023Z,5.60
2018-11-20T10:03:19.756Z,5.60
2018-11-20T10:06:24.635Z,5.60
2018-11-20T10:09:09.424Z,5.60
2018-11-20T10:11:48.702Z,5.70
2018-11-20T10:14:38.930Z,5.80
2018-11-20T10:17:29.991Z,5.80
2018-11-20T10:20:17.980Z,5.80
2018-11-20T10:23:05.818Z,5.80
2018-11-20T10:25:53.928Z,5.90
2018-11-20T10:28:45.301Z,5.90
2018-11-20T10:31:31.704Z,5.90
2018-11-20T10:34:18.655Z,5.80
2018-11-20T10:37:08.948Z,5.70
2018-11-20T10:40:03.182Z,5.70
2018-11-20T10:46:17.426Z,5.70
2018-11-20T10:49:05.186Z,5.80
2018-11-20T10:54:50.501Z,5.80
2018-11-20T10:57:38.828Z,5.80
2018-11-20T11:00:45.915Z,5.80
2018-11-20T11:03:53.469Z,5.90
2018-11-20T11:07:11.288Z,6.00
2018-11-20T11:09:56.226Z,6.10
2018-11-20T11:15:30.813Z,6.10
2018-11-20T11:18:18.726Z,6.10
2018-11-20T11:21:26.129Z,6.10
2018-11-20T11:24:15.320Z,6.10
2018-11-20T11:27:04.617Z,6.10
2018-11-20T11:29:52.426Z,6.10
2018-11-20T11:32:40.825Z,6.10
2018-11-20T11:35:47.949Z,6.20
2018-11-20T11:38:36.178Z,6.30
2018-11-20T11:41:25.582Z,6.30
2018-11-20T11:44:32.847Z,6.40
2018-11-20T11:47:50.678Z,6.40
2018-11-20T11:50:56.759Z,6.50
2018-11-20T11:53:42.921Z,6.50
2018-11-20T11:56:33.646Z,6.50
2018-11-20T11:59:33.439Z,6.50
2018-11-20T12:05:37.225Z,6.50
2018-11-20T12:08:38.918Z,6.50
2018-11-20T12:11:27.976Z,6.50
2018-11-20T12:17:31.087Z,6.70
2018-11-20T12:20:19.260Z,6.80
2018-11-20T12:26:13.167Z,6.70
2018-11-20T12:29:01.203Z,6.70
2018-11-20T12:31:50.807Z,6.80
2018-11-20T12:34:38.326Z,6.90
2018-11-20T12:37:27.910Z,7.00
2018-11-20T12:40:35.273Z,6.90
2018-11-20T12:43:23.490Z,7.00
2018-11-20T12:46:03.698Z,6.90
2018-11-20T12:49:11.690Z,7.00
2018-11-20T12:52:02.607Z,7.10
2018-11-20T12:55:09.749Z,7.40
2018-11-20T12:57:57.659Z,7.50
2018-11-20T13:00:46.852Z,7.40
2018-11-20T13:03:35.853Z,7.20
2018-11-20T13:06:25.258Z,7.30
2018-11-20T13:09:35.475Z,7.30
2018-11-20T13:12:44.308Z,7.20
2018-11-20T13:15:53.431Z,7.10
2018-11-20T13:18:44.888Z,7.00
2018-11-20T13:21:52.298Z,6.90
2018-11-20T13:24:48.283Z,6.90
2018-11-20T13:27:58.901Z,6.80
2018-11-20T13:31:12.444Z,6.80
2018-11-20T13:37:29.690Z,6.90
2018-11-20T13:40:18.214Z,7.00
2018-11-20T13:43:11.825Z,7.10
2018-11-20T13:45:58.472Z,7.20
2018-11-20T13:48:54.675Z,7.00
2018-11-20T13:51:42.444Z,7.10
2018-11-20T13:54:57.525Z,6.90
2018-11-20T13:57:45.763Z,6.90
2018-11-20T14:00:49.279Z,7.20
2018-11-20T14:03:43.066Z,7.20
2018-11-20T14:06:28.677Z,7.20
2018-11-20T14:09:17.398Z,7.10
2018-11-20T14:12:25.264Z,6.90
2018-11-20T14:15:34.384Z,6.80
2018-11-20T14:32:24.480Z,6.70
2018-11-20T14:35:34.900Z,6.70
2018-11-20T14:38:24.337Z,6.60
2018-11-20T14:46:38.141Z,6.60
2018-11-20T14:49:45.872Z,6.60
2018-11-20T14:52:54.715Z,6.50
2018-11-20T14:56:02.351Z,6.40
2018-11-20T14:59:10.710Z,6.40
2018-11-20T15:05:15.165Z,6.40
2018-11-20T15:07:59.275Z,6.40
2018-11-20T15:10:46.848Z,6.40
2018-11-20T15:13:56.508Z,6.50
2018-11-20T15:19:00.114Z,6.50
2018-11-20T15:21:48.273Z,6.50
2018-11-20T15:24:36.137Z,6.50
2018-11-20T15:27:26.478Z,6.50
2018-11-20T15:30:14.425Z,6.40
2018-11-20T15:33:08.815Z,6.40
2018-11-20T15:36:02.881Z,6.40
2018-11-20T15:39:02.333Z,6.40
2018-11-20T15:42:06.580Z,6.50
2018-11-20T15:45:06.726Z,6.50
2018-11-20T15:48:14.287Z,6.50
2018-11-20T15:51:05.523Z,6.40
2018-11-20T15:53:57.760Z,6.40
2018-11-20T15:56:46.047Z,6.40
2018-11-20T15:59:34.093Z,6.40
2018-11-20T16:02:33.093Z,6.50
2018-11-20T16:05:18.904Z,6.50
2018-11-20T16:08:08.929Z,6.50
2018-11-20T16:11:16.139Z,6.50
2018-11-20T16:14:25.499Z,6.50
2018-11-20T16:17:16.559Z,6.50
2018-11-20T16:20:03.647Z,6.50
2018-11-20T16:28:59.872Z,6.40
2018-11-20T16:31:48.517Z,6.40
2018-11-20T16:34:51.378Z,6.30
2018-11-20T16:37:38.670Z,6.40
2018-11-20T16:40:29.030Z,6.40
2018-11-20T16:43:16.989Z,6.40
2018-11-20T16:46:18.966Z,6.40
2018-11-20T16:49:04.393Z,6.40
2018-11-20T16:52:01.609Z,6.40
2018-11-20T16:54:49.527Z,6.40
2018-11-20T16:57:38.274Z,6.40
2018-11-20T17:00:45.304Z,6.40
2018-11-20T17:03:52.450Z,6.40
2018-11-20T17:06:40.675Z,6.40
2018-11-20T17:09:47.757Z,6.30
2018-11-20T17:12:58.472Z,6.30
2018-11-20T17:15:48.888Z,6.30
2018-11-20T17:26:05.912Z,6.30
2018-11-20T17:29:13.032Z,6.40
2018-11-20T17:32:20.651Z,6.30
2018-11-20T17:35:29.022Z,6.30
2018-11-20T17:38:36.990Z,6.20
2018-11-20T17:41:44.143Z,6.10
2018-11-20T17:44:53.578Z,6.10
2018-11-20T17:48:21.826Z,6.10
2018-11-20T17:51:29.140Z,6.00
2018-11-20T17:54:20.243Z,6.00
2018-11-20T17:57:28.378Z,5.90
2018-11-20T18:00:35.768Z,5.80
2018-11-20T18:04:02.153Z,5.80
2018-11-20T18:07:28.499Z,5.90
2018-11-20T18:10:35.766Z,5.80
2018-11-20T18:13:43.252Z,5.80
2018-11-20T18:16:33.096Z,5.80
2018-11-20T18:19:37.869Z,5.80
2018-11-20T18:22:28.687Z,5.80
2018-11-20T18:25:29.973Z,5.80
2018-11-20T18:28:37.315Z,5.80
2018-11-20T18:31:44.712Z,5.80
2018-11-20T18:34:52.072Z,5.70
2018-11-20T18:37:42.448Z,5.70
2018-11-20T18:40:49.588Z,5.70
2018-11-20T18:43:37.858Z,5.70
2018-11-20T18:46:26.912Z,5.70
2018-11-20T18:49:53.284Z,5.60
2018-11-20T18:55:12.162Z,5.60
2018-11-20T18:58:01.108Z,5.60
2018-11-20T19:00:49.138Z,5.60
2018-11-20T19:03:57.122Z,5.50
2018-11-20T19:06:45.078Z,5.40
2018-11-20T19:12:52.078Z,5.40
2018-11-20T19:15:42.796Z,5.40
2018-11-20T19:21:59.797Z,5.30
2018-11-20T19:24:47.781Z,5.40
2018-11-20T19:30:43.130Z,5.40
2018-11-20T19:33:53.138Z,5.40
2018-11-20T19:36:42.792Z,5.40
2018-11-20T19:39:51.780Z,5.40
2018-11-20T19:48:56.159Z,5.40
2018-11-20T19:52:22.791Z,5.40
2018-11-20T19:55:33.131Z,5.40
2018-11-20T19:58:21.307Z,5.40
2018-11-20T20:01:28.479Z,5.40
2018-11-20T20:04:17.393Z,5.40
2018-11-20T20:07:25.169Z,5.40
2018-11-20T20:10:19.142Z,5.30
2018-11-20T20:13:05.111Z,5.30
2018-11-20T20:15:55.263Z,5.30
2018-11-20T20:19:02.496Z,5.30
2018-11-20T20:22:09.684Z,5.30
2018-11-20T20:25:18.893Z,5.30
2018-11-20T20:28:45.477Z,5.20
2018-11-20T20:31:52.991Z,5.20
2018-11-20T20:35:00.118Z,5.20
2018-11-20T20:40:55.756Z,5.10
2018-11-20T20:43:45.176Z,5.00
2018-11-20T20:46:52.842Z,5.00
2018-11-20T20:50:01.072Z,5.00
2018-11-20T20:52:52.146Z,4.90
2018-11-20T20:56:00.994Z,4.90
2018-11-20T20:58:49.272Z,4.90
2018-11-20T21:01:37.292Z,4.90
2018-11-20T21:07:29.055Z,4.80
2018-11-20T21:10:17.488Z,4.80
2018-11-20T21:13:25.564Z,4.70
2018-11-20T21:16:17.119Z,4.70
2018-11-20T21:19:05.449Z,4.70
2018-11-20T21:22:12.609Z,4.60
2018-11-20T21:25:20.667Z,4.60
2018-11-20T21:28:08.882Z,4.70
2018-11-20T21:30:56.697Z,4.70
2018-11-20T21:33:36.266Z,4.70
2018-11-20T21:36:46.993Z,4.60
2018-11-20T21:39:54.167Z,4.60
2018-11-20T21:43:02.311Z,4.60
2018-11-20T21:49:17.496Z,4.60
2018-11-20T21:52:20.527Z,4.70
2018-11-20T21:55:27.652Z,4.70
2018-11-20T21:58:34.800Z,4.60
2018-11-20T22:01:30.905Z,4.70
2018-11-20T22:04:38.931Z,4.80
2018-11-20T22:07:46.410Z,4.80
2018-11-20T22:10:57.194Z,4.90
2018-11-20T22:13:46.663Z,5.00
2018-11-20T22:16:54.112Z,5.20
2018-11-20T22:20:03.280Z,5.20
2018-11-20T22:23:11.132Z,5.20
2018-11-20T22:26:19.952Z,5.30
2018-11-20T22:29:26.285Z,5.30
2018-11-20T22:35:40.231Z,5.40
2018-11-20T22:38:30.914Z,5.50
2018-11-20T22:41:56.593Z,5.50
2018-11-20T22:45:23.016Z,5.60
2018-11-20T22:48:30.252Z,5.60
2018-11-20T22:51:37.429Z,5.70
2018-11-20T22:55:03.997Z,5.80
2018-11-20T22:58:11.215Z,5.80
2018-11-20T23:01:18.318Z,5.90
2018-11-20T23:04:30.232Z,5.90
2018-11-20T23:07:37.522Z,5.90
2018-11-20T23:10:26.794Z,6.00
2018-11-20T23:13:15.144Z,6.10
2018-11-20T23:16:04.737Z,6.10
2018-11-20T23:18:42.930Z,6.10
2018-11-20T23:21:11.853Z,6.10
2018-11-20T23:23:44.059Z,6.00
2018-11-20T23:26:32.196Z,6.10
2018-11-20T23:29:20.532Z,6.10
2018-11-20T23:32:08.663Z,6.20
2018-11-20T23:34:58.033Z,6.30
2018-11-20T23:38:05.370Z,6.30
2018-11-20T23:40:53.731Z,6.30
2018-11-20T23:43:41.944Z,6.30
2018-11-20T23:46:30.019Z,6.30
2018-11-20T23:49:18.457Z,6.30
2018-11-20T23:52:07.558Z,6.30
2018-11-20T23:54:37.329Z,6.40
2018-11-20T23:57:06.568Z,6.40
2018-11-20T23:59:35.418Z,6.40
